Time;durP1;ratioP1;P1;durP2;ratioP2;P2;SDS_P1;SDS_P2;PMS_P1;PMS_P2;Temp;Humidity;BMP_temperature;BMP_pressure;BME280_temperature;BME280_humidity;BME280_pressure;Samples;Min_cycle;Max_cycle;Signal;HPM_P1;HPM_P2
2021/08/19 00:00:42;;;;;;;8.33;6.80;;;;;;;16.57;86.75;100213.63;1777825;79;21627;-74
2021/08/19 00:03:09;;;;;;;8.00;6.73;;;;;;;16.50;87.06;100207.86;1795067;79;21062;-73
2021/08/19 00:05:36;;;;;;;10.20;7.30;;;;;;;16.41;87.37;100208.57;1770048;78;21125;-72
2021/08/19 00:08:05;;;;;;;8.67;6.90;;;;;;;16.36;87.90;100205.22;1779740;79;21702;-73
2021/08/19 00:10:32;;;;;;;7.83;6.87;;;;;;;16.30;88.40;100199.13;1773092;78;21129;-72
2021/08/19 00:13:01;;;;;;;9.20;7.13;;;;;;;16.26;88.81;100188.72;1774560;79;21026;-73
2021/08/19 00:15:28;;;;;;;9.47;7.27;;;;;;;16.23;89.21;100192.58;1771681;78;21592;-73
2021/08/19 00:17:57;;;;;;;8.07;7.07;;;;;;;16.19;89.51;100195.08;1776686;78;21304;-73
2021/08/19 00:20:25;;;;;;;10.10;6.97;;;;;;;16.16;89.66;100195.12;1783478;79;21069;-73
2021/08/19 00:22:54;;;;;;;8.53;7.00;;;;;;;16.15;89.72;100200.25;1772371;78;21157;-73
2021/08/19 00:25:24;;;;;;;9.50;6.90;;;;;;;16.15;89.81;100204.84;1779748;78;21140;-73
2021/08/19 00:27:51;;;;;;;10.47;7.10;;;;;;;16.15;89.92;100210.23;1777598;78;21140;-75
2021/08/19 00:30:20;;;;;;;13.17;6.90;;;;;;;16.14;89.95;100202.70;1803850;78;21082;-72
2021/08/19 00:32:47;;;;;;;10.53;6.73;;;;;;;16.13;90.03;100196.29;1776500;79;21649;-74
2021/08/19 00:35:14;;;;;;;10.43;7.50;;;;;;;16.12;90.12;100191.45;1772027;78;21822;-73
2021/08/19 00:37:42;;;;;;;9.00;6.83;;;;;;;16.12;90.26;100187.94;1774508;78;21649;-73
2021/08/19 00:40:11;;;;;;;11.13;8.47;;;;;;;16.12;90.54;100184.72;1783641;79;21039;-74
2021/08/19 00:42:38;;;;;;;9.97;7.93;;;;;;;16.12;90.89;100183.89;1784551;78;21114;-72
2021/08/19 00:45:07;;;;;;;9.93;7.30;;;;;;;16.11;91.15;100183.11;1779982;79;21000;-72
2021/08/19 00:47:38;;;;;;;11.97;7.53;;;;;;;16.11;91.37;100188.49;1783838;79;21160;-72
2021/08/19 00:50:07;;;;;;;10.80;7.42;;;;;;;16.12;91.52;100186.06;1774140;78;21615;-73
2021/08/19 00:52:37;;;;;;;7.67;6.83;;;;;;;16.13;91.67;100186.30;1783184;79;21050;-73
2021/08/19 00:55:08;;;;;;;10.37;7.27;;;;;;;16.11;91.74;100193.88;1772118;79;21097;-73
2021/08/19 00:57:40;;;;;;;8.80;6.50;;;;;;;16.11;91.80;100199.83;1774280;79;21023;-75
2021/08/19 01:00:11;;;;;;;9.47;6.60;;;;;;;16.11;91.82;100201.97;1780976;79;21076;-73
2021/08/19 01:02:46;;;;;;;8.73;6.47;;;;;;;16.10;91.78;100199.03;1782446;79;21049;-71
2021/08/19 01:05:22;;;;;;;9.97;6.33;;;;;;;16.13;91.78;100199.77;1771184;78;21073;-72
2021/08/19 01:07:49;;;;;;;7.23;5.90;;;;;;;16.15;91.69;100193.52;1773986;79;21015;-70
2021/08/19 01:10:16;;;;;;;7.90;6.80;;;;;;;16.18;91.56;100196.95;1771572;79;21620;-72
2021/08/19 01:12:45;;;;;;;8.33;5.77;;;;;;;16.18;91.49;100188.88;1768282;79;21489;-72
2021/08/19 01:15:14;;;;;;;9.57;5.93;;;;;;;16.21;91.47;100193.42;1768025;79;21433;-72
2021/08/19 01:17:42;;;;;;;8.07;6.47;;;;;;;16.20;91.28;100201.27;1771458;78;21109;-71
2021/08/19 01:20:10;;;;;;;8.80;6.03;;;;;;;16.22;91.21;100213.31;1782628;78;21581;-72
2021/08/19 01:22:37;;;;;;;8.13;6.80;;;;;;;16.25;91.17;100221.34;1773241;79;21003;-73
2021/08/19 01:25:06;;;;;;;6.77;5.87;;;;;;;16.27;91.02;100223.20;1787115;79;21084;-73
2021/08/19 01:27:35;;;;;;;8.20;6.30;;;;;;;16.28;90.96;100231.52;1779476;79;21081;-73
2021/08/19 01:30:02;;;;;;;9.63;5.87;;;;;;;16.28;90.82;100243.09;1772407;79;21141;-74
2021/08/19 01:32:34;;;;;;;7.37;5.73;;;;;;;16.30;90.75;100249.55;1776369;79;21002;-72
2021/08/19 01:35:03;;;;;;;7.00;5.53;;;;;;;16.32;90.72;100241.94;1771113;79;21613;-72
2021/08/19 01:37:29;;;;;;;9.10;6.17;;;;;;;16.32;90.71;100244.63;1770541;79;21129;-73
2021/08/19 01:39:56;;;;;;;8.63;6.47;;;;;;;16.28;90.50;100242.30;1774144;78;20935;-73
2021/08/19 01:42:25;;;;;;;8.10;6.10;;;;;;;16.28;90.38;100243.65;1754211;79;21083;-72
2021/08/19 01:44:51;;;;;;;9.37;5.73;;;;;;;16.29;90.16;100239.32;1768558;80;21129;-73
2021/08/19 01:47:21;;;;;;;6.40;5.50;;;;;;;16.28;89.90;100228.83;1771770;80;21133;-72
2021/08/19 01:49:49;;;;;;;7.80;6.47;;;;;;;16.26;89.89;100220.27;1773334;79;20940;-73
2021/08/19 01:52:17;;;;;;;9.43;6.87;;;;;;;16.20;90.04;100204.75;1751705;80;21117;-72
2021/08/19 01:54:46;;;;;;;8.50;6.60;;;;;;;16.13;90.31;100202.47;1765480;80;20959;-72
2021/08/19 01:57:13;;;;;;;11.87;6.53;;;;;;;16.08;90.29;100201.77;1762088;80;21106;-72
2021/08/19 01:59:39;;;;;;;10.33;7.00;;;;;;;16.02;90.33;100195.69;1766352;80;20951;-73
2021/08/19 02:02:06;;;;;;;8.77;6.93;;;;;;;15.98;90.42;100201.44;1790060;79;21849;-73
2021/08/19 02:04:33;;;;;;;9.23;7.20;;;;;;;15.93;90.58;100203.70;1780238;80;21007;-73
2021/08/19 02:07:02;;;;;;;10.37;7.47;;;;;;;15.92;90.77;100201.29;1767553;80;21195;-73
2021/08/19 02:09:29;;;;;;;10.33;6.87;;;;;;;15.90;90.87;100199.47;1767690;80;21054;-74
2021/08/19 02:11:56;;;;;;;11.20;6.73;;;;;;;15.89;90.95;100195.98;1770681;80;21078;-73
2021/08/19 02:14:23;;;;;;;11.83;6.70;;;;;;;15.88;90.87;100198.41;1758635;80;22309;-74
2021/08/19 02:16:51;;;;;;;8.90;6.87;;;;;;;15.87;90.69;100204.11;1796362;77;21399;-73
2021/08/19 02:19:19;;;;;;;8.93;6.67;;;;;;;15.86;90.41;100198.45;1796858;77;21462;-74
2021/08/19 02:21:48;;;;;;;10.03;6.60;;;;;;;15.85;90.40;100211.67;1799500;77;21101;-73
2021/08/19 02:24:16;;;;;;;8.40;6.40;;;;;;;15.82;90.01;100210.37;1788347;79;21544;-73
2021/08/19 02:26:43;;;;;;;8.80;6.67;;;;;;;15.78;89.87;100208.04;1812884;77;21095;-72
2021/08/19 02:29:09;;;;;;;8.57;6.30;;;;;;;15.75;89.81;100210.53;1795560;77;20976;-71
2021/08/19 02:31:40;;;;;;;10.63;6.37;;;;;;;15.71;89.77;100210.34;1809577;77;33389;-71
2021/08/19 02:34:06;;;;;;;8.57;6.50;;;;;;;15.68;89.77;100207.69;1802399;77;21486;-72
2021/08/19 02:36:33;;;;;;;15.93;7.03;;;;;;;15.64;89.79;100205.88;1798184;77;21026;-72
2021/08/19 02:39:00;;;;;;;8.50;5.47;;;;;;;15.63;89.88;100210.47;1792407;77;21137;-72
2021/08/19 02:41:28;;;;;;;8.73;6.30;;;;;;;15.61;89.94;100220.73;1800055;77;21011;-73
2021/08/19 02:43:56;;;;;;;7.93;5.87;;;;;;;15.55;89.96;100224.61;1801994;77;21543;-73
2021/08/19 02:46:22;;;;;;;9.43;6.70;;;;;;;15.51;90.07;100227.65;1788936;77;20999;-73
2021/08/19 02:48:49;;;;;;;10.37;6.67;;;;;;;15.50;90.34;100232.80;1798393;77;21030;-72
2021/08/19 02:51:18;;;;;;;10.50;8.10;;;;;;;15.50;90.49;100239.52;1794170;77;21141;-73
2021/08/19 02:53:45;;;;;;;13.23;8.47;;;;;;;15.50;90.59;100243.56;1792371;77;21105;-72
2021/08/19 02:56:13;;;;;;;11.50;10.07;;;;;;;15.52;90.77;100248.08;1785092;80;21056;-74
2021/08/19 02:58:40;;;;;;;11.00;9.20;;;;;;;15.54;90.88;100250.49;1779090;79;21042;-74
2021/08/19 03:01:06;;;;;;;11.73;9.43;;;;;;;15.54;90.87;100249.94;1806446;77;21019;-75
2021/08/19 03:03:34;;;;;;;11.40;9.93;;;;;;;15.59;90.93;100251.73;1803250;78;21184;-74
2021/08/19 03:06:03;;;;;;;11.07;8.57;;;;;;;15.62;91.09;100255.17;1795783;77;21470;-74
2021/08/19 03:08:30;;;;;;;11.43;9.50;;;;;;;15.65;91.11;100254.02;1807434;77;21042;-72
2021/08/19 03:10:57;;;;;;;12.13;8.87;;;;;;;15.70;91.09;100251.83;1796413;77;20999;-75
2021/08/19 03:13:25;;;;;;;10.03;7.83;;;;;;;15.72;91.17;100252.31;1801954;79;21087;-74
2021/08/19 03:15:52;;;;;;;9.20;8.20;;;;;;;15.73;91.13;100253.11;1797848;77;21785;-74
2021/08/19 03:18:21;;;;;;;9.23;7.33;;;;;;;15.75;91.15;100254.97;1784685;79;21585;-75
2021/08/19 03:20:48;;;;;;;9.67;7.80;;;;;;;15.78;91.05;100255.72;1792381;77;21050;-74
2021/08/19 03:23:16;;;;;;;7.67;6.73;;;;;;;15.78;90.82;100255.72;1800194;77;21466;-74
2021/08/19 03:25:44;;;;;;;9.27;7.47;;;;;;;15.79;90.88;100261.34;1796197;77;21101;-73
2021/08/19 03:28:12;;;;;;;8.33;7.20;;;;;;;15.81;90.88;100262.64;1793837;77;21114;-75
2021/08/19 03:30:38;;;;;;;9.80;7.57;;;;;;;15.83;90.78;100261.02;1789799;77;21043;-73
2021/08/19 03:33:07;;;;;;;11.70;7.63;;;;;;;15.84;90.70;100264.74;1788980;79;21431;-73
2021/08/19 03:35:34;;;;;;;8.70;6.70;;;;;;;15.86;90.63;100268.47;1790410;79;21027;-74
2021/08/19 03:38:02;;;;;;;8.33;6.43;;;;;;;15.87;90.52;100271.44;1799163;77;21105;-75
2021/08/19 03:40:28;;;;;;;9.03;6.87;;;;;;;15.89;90.51;100271.39;1791284;77;21070;-75
2021/08/19 03:42:55;;;;;;;7.97;6.60;;;;;;;15.91;90.44;100267.83;1806775;78;21439;-74
2021/08/19 03:45:22;;;;;;;8.53;6.47;;;;;;;15.94;90.35;100273.97;1808642;77;21078;-74
2021/08/19 03:47:49;;;;;;;7.13;6.23;;;;;;;15.96;90.33;100268.30;1801683;79;21120;-74
2021/08/19 03:50:18;;;;;;;8.43;6.20;;;;;;;15.98;90.25;100270.67;1792767;77;21648;-74
2021/08/19 03:52:45;;;;;;;7.40;6.20;;;;;;;16.00;90.17;100272.53;1801794;77;21471;-74
2021/08/19 03:55:12;;;;;;;6.80;5.30;;;;;;;16.00;90.06;100266.59;1816033;77;21407;-73
2021/08/19 03:57:40;;;;;;;7.60;6.17;;;;;;;16.00;90.03;100265.25;1797115;77;21026;-75
2021/08/19 04:00:08;;;;;;;7.03;6.23;;;;;;;16.00;89.90;100259.06;1800515;77;21162;-74
2021/08/19 04:02:40;;;;;;;8.83;5.83;;;;;;;15.99;89.67;100258.80;1800384;77;21085;-74
2021/08/19 04:05:08;;;;;;;6.63;5.23;;;;;;;15.99;89.46;100265.53;1800956;77;21632;-75
2021/08/19 04:07:37;;;;;;;9.70;5.40;;;;;;;15.97;88.91;100260.45;1797706;78;20982;-74
2021/08/19 04:10:05;;;;;;;7.07;5.97;;;;;;;15.94;88.43;100267.79;1790906;77;21102;-74
2021/08/19 04:12:34;;;;;;;8.37;5.17;;;;;;;15.93;88.30;100264.30;1787678;77;21043;-73
2021/08/19 04:15:03;;;;;;;6.90;4.80;;;;;;;15.94;88.00;100268.58;1782609;79;21107;-75
2021/08/19 04:17:31;;;;;;;6.53;5.40;;;;;;;15.95;87.91;100265.34;1788369;79;21129;-75
2021/08/19 04:19:58;;;;;;;7.50;5.40;;;;;;;15.95;87.68;100265.34;1784530;79;21101;-73
2021/08/19 04:22:26;;;;;;;6.17;4.63;;;;;;;15.96;87.45;100268.30;1786757;79;21565;-73
2021/08/19 04:24:54;;;;;;;7.27;4.93;;;;;;;15.98;87.11;100262.59;1787855;78;21000;-74
2021/08/19 04:27:21;;;;;;;6.40;4.87;;;;;;;15.96;86.72;100262.91;1791138;79;20999;-73
2021/08/19 04:29:48;;;;;;;7.17;5.03;;;;;;;15.98;86.56;100266.09;1788338;79;21636;-74
2021/08/19 04:32:16;;;;;;;6.63;4.50;;;;;;;15.98;86.32;100270.67;1782130;78;21062;-74
2021/08/19 04:34:43;;;;;;;6.20;4.70;;;;;;;16.01;85.98;100267.39;1784105;78;21023;-73
2021/08/19 04:37:11;;;;;;;7.23;4.63;;;;;;;16.04;85.86;100265.45;1775045;79;20990;-73
2021/08/19 04:39:38;;;;;;;6.67;4.80;;;;;;;16.07;85.72;100259.45;1769603;79;21598;-74
2021/08/19 04:42:05;;;;;;;5.83;4.20;;;;;;;16.09;85.43;100255.89;1787888;77;21549;-76
2021/08/19 04:44:32;;;;;;;8.03;4.60;;;;;;;16.13;85.25;100260.40;1793923;78;21056;-76
2021/08/19 04:46:59;;;;;;;7.97;4.57;;;;;;;16.17;85.18;100262.73;1803951;78;21747;-74
2021/08/19 04:49:26;;;;;;;6.70;4.57;;;;;;;16.22;85.21;100266.41;1787253;78;21022;-74
2021/08/19 04:51:54;;;;;;;6.93;5.03;;;;;;;16.30;85.20;100272.45;1781210;78;21110;-74
2021/08/19 04:54:21;;;;;;;7.27;5.17;;;;;;;16.37;85.17;100282.27;1773316;79;21465;-75
2021/08/19 04:56:48;;;;;;;6.97;4.07;;;;;;;16.41;84.78;100279.21;1774939;78;21652;-75
2021/08/19 04:59:15;;;;;;;6.90;4.83;;;;;;;16.44;84.21;100284.00;1772237;79;21049;-76
2021/08/19 05:01:42;;;;;;;6.97;4.50;;;;;;;16.45;83.96;100279.41;1748170;78;21094;-75
2021/08/19 05:04:10;;;;;;;6.57;4.57;;;;;;;16.46;83.71;100280.46;1780205;78;21537;-76
2021/08/19 05:06:37;;;;;;;6.07;4.60;;;;;;;16.49;83.49;100283.91;1764858;79;21120;-74
2021/08/19 05:09:05;;;;;;;6.57;4.37;;;;;;;16.52;83.32;100276.56;1775441;79;21040;-74
2021/08/19 05:11:31;;;;;;;8.60;4.60;;;;;;;16.60;83.18;100273.69;1763420;80;21102;-74
2021/08/19 05:13:59;;;;;;;8.17;4.63;;;;;;;16.65;83.04;100268.98;1771835;78;21050;-75
2021/08/19 05:16:27;;;;;;;6.80;4.90;;;;;;;16.71;82.36;100274.25;1790649;79;21062;-78
2021/08/19 05:18:55;;;;;;;6.10;4.03;;;;;;;16.76;81.59;100276.31;1782602;80;21083;-75
2021/08/19 05:21:22;;;;;;;8.73;4.40;;;;;;;16.82;80.72;100287.80;1758609;80;21137;-75
2021/08/19 05:23:49;;;;;;;7.20;4.50;;;;;;;16.90;79.88;100290.30;1765824;80;21537;-75
2021/08/19 05:26:18;;;;;;;7.13;4.30;;;;;;;17.00;79.58;100290.85;1786547;77;21074;-74
2021/08/19 05:28:47;;;;;;;8.17;5.70;;;;;;;17.10;78.77;100285.20;1798540;77;21439;-75
2021/08/19 05:31:13;;;;;;;8.33;5.90;;;;;;;17.23;78.77;100280.06;1808690;77;21815;-76
2021/08/19 05:33:40;;;;;;;9.67;6.43;;;;;;;17.36;78.58;100276.48;1795660;77;21118;-74
2021/08/19 05:36:08;;;;;;;9.07;6.50;;;;;;;17.49;78.02;100278.86;1790666;79;21277;-75
2021/08/19 05:38:36;;;;;;;9.57;6.67;;;;;;;17.66;77.52;100287.05;1802902;77;21082;-74
2021/08/19 05:41:04;;;;;;;9.07;6.70;;;;;;;17.78;76.08;100283.80;1805628;77;21021;-76
2021/08/19 05:43:31;;;;;;;9.10;6.33;;;;;;;17.84;73.33;100278.50;1797192;77;21396;-76
2021/08/19 05:45:58;;;;;;;7.23;5.40;;;;;;;17.94;72.64;100286.33;1807279;77;21632;-75
2021/08/19 05:48:24;;;;;;;7.63;4.40;;;;;;;18.05;71.48;100280.86;1788538;79;21545;-74
2021/08/19 05:50:51;;;;;;;8.73;4.53;;;;;;;18.15;70.99;100274.94;1789380;77;21043;-75
2021/08/19 05:53:19;;;;;;;8.00;4.70;;;;;;;18.24;69.78;100274.41;1795063;77;21133;-76
2021/08/19 05:55:46;;;;;;;6.80;4.40;;;;;;;18.33;69.99;100269.00;1796297;77;21593;-74
2021/08/19 05:58:13;;;;;;;7.27;4.63;;;;;;;18.41;69.30;100260.11;1807469;77;21066;-74
2021/08/19 06:00:43;;;;;;;7.37;4.47;;;;;;;18.48;69.36;100260.44;1797108;77;21046;-74
2021/08/19 06:03:10;;;;;;;7.23;3.97;;;;;;;18.55;69.34;100262.67;1761449;77;21054;-75
2021/08/19 06:05:38;;;;;;;7.70;4.73;;;;;;;18.59;69.21;100264.44;1800755;77;21084;-77
2021/08/19 06:08:05;;;;;;;7.00;4.10;;;;;;;18.65;68.05;100263.70;1798883;77;21114;-74
2021/08/19 06:10:32;;;;;;;8.07;4.13;;;;;;;18.70;67.65;100258.94;1802005;77;21125;-75
2021/08/19 06:12:58;;;;;;;8.60;4.97;;;;;;;18.79;66.95;100262.22;1797963;77;21511;-75
2021/08/19 06:15:25;;;;;;;7.80;4.10;;;;;;;18.87;65.74;100272.25;1798648;77;21058;-75
2021/08/19 06:17:54;;;;;;;5.13;3.73;;;;;;;18.95;65.69;100273.61;1807818;77;21133;-78
2021/08/19 06:20:22;;;;;;;8.97;4.17;;;;;;;19.06;65.06;100267.87;1792810;77;21560;-76
2021/08/19 06:22:51;;;;;;;6.00;4.30;;;;;;;19.13;65.25;100275.73;1803169;77;21039;-78
2021/08/19 06:25:20;;;;;;;6.70;4.00;;;;;;;19.25;65.09;100266.14;1794580;77;21553;-78
2021/08/19 06:27:47;;;;;;;7.87;4.20;;;;;;;19.33;63.64;100267.48;1805453;79;21093;-73
2021/08/19 06:30:14;;;;;;;6.87;4.20;;;;;;;19.36;63.63;100276.31;1798249;77;21514;-74
2021/08/19 06:32:42;;;;;;;7.03;4.40;;;;;;;19.36;63.71;100278.23;1797889;77;21241;-75
2021/08/19 06:35:09;;;;;;;7.30;4.40;;;;;;;19.37;63.34;100279.81;1796848;77;21572;-74
2021/08/19 06:37:37;;;;;;;6.30;4.10;;;;;;;19.43;63.11;100277.97;1801004;77;21133;-72
2021/08/19 06:40:05;;;;;;;8.07;3.90;;;;;;;19.53;62.06;100291.72;1800095;77;20950;-73
2021/08/19 06:42:33;;;;;;;7.17;4.60;;;;;;;19.61;60.47;100283.32;1801553;77;21026;-72
2021/08/19 06:44:59;;;;;;;6.20;3.63;;;;;;;19.74;59.99;100281.55;1798840;77;21111;-73
2021/08/19 06:47:27;;;;;;;8.37;4.47;;;;;;;19.86;59.47;100287.88;1802596;77;21137;-71
2021/08/19 06:49:54;;;;;;;5.73;3.57;;;;;;;20.02;58.83;100288.70;1800803;77;21078;-74
2021/08/19 06:52:22;;;;;;;6.43;3.70;;;;;;;20.11;57.98;100280.76;1802934;78;21099;-73
2021/08/19 06:54:50;;;;;;;8.03;4.07;;;;;;;20.22;56.86;100284.44;1795756;77;21652;-75
2021/08/19 06:57:16;;;;;;;8.13;3.60;;;;;;;20.30;56.44;100284.41;1800050;77;21126;-73
2021/08/19 06:59:43;;;;;;;9.03;4.50;;;;;;;20.40;56.58;100284.58;1801987;77;21049;-74
2021/08/19 07:02:10;;;;;;;7.60;4.60;;;;;;;20.44;56.52;100284.71;1803797;79;21069;-76
2021/08/19 07:04:37;;;;;;;7.37;3.77;;;;;;;20.45;56.31;100279.51;1798629;78;21069;-76
2021/08/19 07:07:05;;;;;;;8.53;4.23;;;;;;;20.45;57.02;100285.72;1799295;78;21578;-76
2021/08/19 07:09:32;;;;;;;7.30;3.53;;;;;;;20.46;56.88;100282.45;1773839;79;21101;-76
2021/08/19 07:12:00;;;;;;;7.37;3.80;;;;;;;20.48;56.02;100274.78;1743453;80;21046;-76
2021/08/19 07:14:27;;;;;;;5.43;3.43;;;;;;;20.55;55.12;100277.79;1748476;80;21114;-77
2021/08/19 07:16:54;;;;;;;6.37;3.70;;;;;;;20.58;54.85;100262.99;1778448;78;21042;-74
2021/08/19 07:19:24;;;;;;;7.10;3.43;;;;;;;20.63;54.73;100271.48;1776701;78;21740;-77
2021/08/19 07:21:52;;;;;;;5.47;3.57;;;;;;;20.66;54.58;100271.39;1781980;78;21534;-76
2021/08/19 07:24:21;;;;;;;7.37;3.40;;;;;;;20.62;53.85;100268.55;1780383;78;21077;-75
2021/08/19 07:26:48;;;;;;;5.23;3.10;;;;;;;20.58;54.68;100267.06;1778829;78;21090;-75
2021/08/19 07:29:17;;;;;;;6.83;3.63;;;;;;;20.68;54.70;100272.66;1774303;79;21576;-74
2021/08/19 07:31:46;;;;;;;5.53;3.40;;;;;;;20.75;54.21;100271.55;1796724;77;21045;-74
2021/08/19 07:34:12;;;;;;;6.13;3.40;;;;;;;20.78;54.57;100276.32;1807288;77;21103;-76
2021/08/19 07:36:41;;;;;;;6.57;3.73;;;;;;;20.81;55.13;100275.66;1795290;77;21050;-75
2021/08/19 07:39:08;;;;;;;6.73;3.80;;;;;;;20.92;54.64;100280.67;1785964;77;21783;-76
2021/08/19 07:41:35;;;;;;;6.17;3.50;;;;;;;21.02;54.79;100281.62;1807679;77;21118;-76
2021/08/19 07:44:04;;;;;;;7.07;4.10;;;;;;;21.13;54.74;100273.30;1796342;77;21027;-76
2021/08/19 07:46:33;;;;;;;7.93;4.33;;;;;;;21.23;54.70;100274.23;1795841;77;21132;-76
2021/08/19 07:49:03;;;;;;;5.80;3.80;;;;;;;21.29;54.57;100274.26;1797701;77;21105;-75
2021/08/19 07:51:34;;;;;;;5.47;3.70;;;;;;;21.30;54.30;100279.91;1782932;79;21087;-78
2021/08/19 07:54:02;;;;;;;5.43;3.67;;;;;;;21.32;54.32;100274.13;1790171;77;21042;-75
2021/08/19 07:56:29;;;;;;;5.93;3.40;;;;;;;21.42;54.40;100272.94;1799168;77;21075;-75
2021/08/19 07:58:57;;;;;;;5.40;3.60;;;;;;;21.47;54.62;100265.37;1793524;77;21929;-75
2021/08/19 08:01:24;;;;;;;6.93;4.13;;;;;;;21.56;54.88;100260.41;1789658;77;21034;-78
2021/08/19 08:03:51;;;;;;;5.43;3.10;;;;;;;21.61;54.99;100265.05;1785734;79;21134;-75
2021/08/19 08:06:17;;;;;;;6.07;3.73;;;;;;;21.67;54.81;100266.98;1802749;77;21054;-75
2021/08/19 08:08:44;;;;;;;6.57;4.30;;;;;;;21.70;55.21;100269.81;1789755;77;21082;-74
2021/08/19 08:11:11;;;;;;;6.40;3.80;;;;;;;21.67;54.26;100270.48;1786342;77;21117;-75
2021/08/19 08:13:39;;;;;;;5.33;3.87;;;;;;;21.57;54.96;100273.65;1783138;79;21089;-75
2021/08/19 08:16:05;;;;;;;6.60;4.10;;;;;;;21.61;54.86;100276.48;1791874;77;21491;-76
2021/08/19 08:18:33;;;;;;;6.30;3.90;;;;;;;21.61;54.43;100277.27;1794618;77;21068;-77
2021/08/19 08:21:02;;;;;;;8.10;4.03;;;;;;;21.67;54.39;100275.92;1797666;79;21150;-75
2021/08/19 08:23:33;;;;;;;6.60;4.13;;;;;;;21.70;54.14;100265.73;1785417;79;21063;-77
2021/08/19 08:26:00;;;;;;;6.97;4.33;;;;;;;21.67;54.73;100265.62;1786245;77;21641;-75
2021/08/19 08:28:30;;;;;;;7.90;4.50;;;;;;;21.54;53.96;100263.45;1788817;77;21632;-76
2021/08/19 08:30:56;;;;;;;6.40;4.00;;;;;;;21.53;53.83;100270.03;1806476;77;21093;-78
2021/08/19 08:33:23;;;;;;;6.67;3.87;;;;;;;21.63;53.67;100262.80;1785703;79;21103;-76
2021/08/19 08:35:51;;;;;;;6.83;3.90;;;;;;;21.72;53.32;100266.20;1791754;77;22273;-75
2021/08/19 08:38:21;;;;;;;7.43;4.03;;;;;;;21.85;52.92;100267.55;1786010;77;21177;-75
2021/08/19 08:40:49;;;;;;;5.10;3.63;;;;;;;21.93;53.04;100259.85;1800742;77;21561;-76
2021/08/19 08:43:20;;;;;;;7.40;3.70;;;;;;;21.92;52.75;100259.64;1807163;77;21050;-74
2021/08/19 08:45:49;;;;;;;5.53;3.40;;;;;;;21.87;52.20;100253.05;1791869;77;21600;-76
2021/08/19 08:48:22;;;;;;;7.07;3.70;;;;;;;21.82;52.05;100246.50;1797866;77;21126;-74
2021/08/19 08:50:51;;;;;;;6.53;4.40;;;;;;;21.70;52.21;100237.20;1790022;77;21059;-73
2021/08/19 08:53:19;;;;;;;6.78;4.35;;;;;;;21.57;52.39;100239.68;1800290;77;21017;-74
2021/08/19 08:55:47;;;;;;;9.60;3.67;;;;;;;21.44;52.87;100238.08;1808203;77;21069;-75
2021/08/19 08:58:16;;;;;;;4.50;3.37;;;;;;;21.36;53.12;100239.78;1798949;77;21058;-74
2021/08/19 09:00:44;;;;;;;6.60;3.87;;;;;;;21.34;53.01;100246.64;1760594;79;21104;-75
2021/08/19 09:03:13;;;;;;;6.13;3.77;;;;;;;21.32;53.52;100241.53;1799984;77;21066;-75
2021/08/19 09:05:46;;;;;;;5.80;3.73;;;;;;;21.38;53.77;100246.22;1789145;79;21584;-75
2021/08/19 09:08:14;;;;;;;6.87;3.90;;;;;;;21.37;52.25;100244.07;1761144;80;21086;-74
2021/08/19 09:10:42;;;;;;;7.90;3.87;;;;;;;21.35;51.74;100240.88;1799189;77;21065;-74
2021/08/19 09:13:14;;;;;;;8.10;3.80;;;;;;;21.35;51.18;100246.32;1792136;77;21557;-74
2021/08/19 09:15:43;;;;;;;6.27;3.70;;;;;;;21.43;51.46;100235.14;1793856;79;21078;-75
2021/08/19 09:18:13;;;;;;;5.78;3.55;;;;;;;21.65;51.66;100244.77;1794293;77;21098;-74
2021/08/19 09:20:42;;;;;;;5.57;3.80;;;;;;;21.87;51.03;100234.02;1806947;77;21039;-75
2021/08/19 09:23:14;;;;;;;7.93;3.93;;;;;;;22.08;49.89;100231.98;1806331;77;20984;-76
2021/08/19 09:25:45;;;;;;;;;;;;;;;22.30;49.83;100225.26;1794303;78;21114;-76
2021/08/19 09:28:25;;;;;;;6.13;4.10;;;;;;;22.50;48.37;100217.27;1789338;77;20950;-76
2021/08/19 09:31:05;;;;;;;7.22;4.08;;;;;;;22.60;47.75;100217.56;1790459;77;21106;-78
2021/08/19 09:33:34;;;;;;;10.87;4.70;;;;;;;22.70;48.45;100213.55;1786943;79;21027;-73
2021/08/19 09:36:06;;;;;;;7.23;4.37;;;;;;;22.72;46.76;100215.38;1799374;78;21110;-74
2021/08/19 09:38:42;;;;;;;7.77;4.80;;;;;;;22.59;46.84;100217.34;1801736;77;21097;-73
2021/08/19 09:41:13;;;;;;;7.90;4.77;;;;;;;22.41;46.54;100217.43;1791626;77;21146;-72
2021/08/19 09:43:52;;;;;;;6.77;4.23;;;;;;;22.27;46.43;100207.47;1803929;79;21051;-75
2021/08/19 09:46:36;;;;;;;7.87;4.40;;;;;;;22.18;47.50;100213.85;1799787;77;21751;-75
2021/08/19 09:49:24;;;;;;;7.70;4.97;;;;;;;22.10;47.69;100216.09;1791415;77;21026;-76
2021/08/19 09:52:13;;;;;;;9.33;4.83;;;;;;;22.03;46.85;100214.52;1797998;77;21974;-75
2021/08/19 09:54:43;;;;;;;6.67;4.80;;;;;;;21.92;48.12;100225.65;1800839;77;20987;-73
2021/08/19 09:57:10;;;;;;;7.60;4.60;;;;;;;21.91;48.37;100228.13;1787486;77;21644;-77
2021/08/19 09:59:40;;;;;;;5.90;4.30;;;;;;;21.94;48.23;100225.51;1797352;77;21022;-75
2021/08/19 10:02:09;;;;;;;6.87;4.70;;;;;;;21.99;47.94;100219.06;1792774;77;21083;-73
2021/08/19 10:04:37;;;;;;;7.70;4.60;;;;;;;22.00;46.83;100226.87;1784001;79;21138;-73
2021/08/19 10:07:04;;;;;;;8.37;4.50;;;;;;;22.00;47.33;100235.03;1785375;77;21096;-74
2021/08/19 10:09:33;;;;;;;8.20;4.73;;;;;;;22.03;46.20;100221.89;1787378;77;21051;-74
2021/08/19 10:12:00;;;;;;;7.00;4.50;;;;;;;22.01;46.42;100220.86;1797582;79;21129;-74
2021/08/19 10:14:29;;;;;;;8.80;4.53;;;;;;;22.01;47.15;100231.73;1788751;77;21452;-74
2021/08/19 10:16:57;;;;;;;6.63;4.30;;;;;;;21.99;46.69;100231.30;1791077;77;21307;-75
2021/08/19 10:19:38;;;;;;;6.87;4.40;;;;;;;21.98;47.53;100231.05;1765642;79;21254;-74
2021/08/19 10:22:16;;;;;;;6.80;4.57;;;;;;;22.02;47.93;100229.27;1757245;80;21117;-75
2021/08/19 10:24:48;;;;;;;7.90;4.27;;;;;;;22.05;48.03;100226.43;1792235;79;21024;-73
2021/08/19 10:27:24;;;;;;;7.80;4.67;;;;;;;22.04;48.29;100225.61;1784990;79;21021;-73
2021/08/19 10:30:07;;;;;;;6.90;4.67;;;;;;;22.10;47.60;100228.91;1761647;78;21097;-74
2021/08/19 10:32:39;;;;;;;5.57;4.17;;;;;;;22.10;47.12;100223.46;1797200;79;21073;-73
2021/08/19 10:35:14;;;;;;;6.47;4.60;;;;;;;22.14;45.80;100229.80;1799784;77;21528;-72
2021/08/19 10:37:54;;;;;;;6.13;4.73;;;;;;;22.20;46.11;100227.09;1802547;79;21089;-72
2021/08/19 10:40:29;;;;;;;7.87;4.33;;;;;;;22.29;45.23;100219.60;1791687;77;22114;-72
2021/08/19 10:43:15;;;;;;;7.43;4.23;;;;;;;22.38;45.26;100226.28;1788771;77;21571;-73
2021/08/19 10:45:42;;;;;;;6.73;4.10;;;;;;;22.39;45.13;100219.69;1788831;77;21185;-70
2021/08/19 10:48:15;;;;;;;4.77;3.47;;;;;;;22.46;43.86;100224.77;1783631;77;21152;-71
2021/08/19 10:50:43;;;;;;;6.57;4.20;;;;;;;22.54;43.94;100243.47;1793872;77;21053;-72
2021/08/19 10:53:22;;;;;;;7.13;4.50;;;;;;;22.60;44.05;100228.45;1797834;77;21482;-73
2021/08/19 10:55:52;;;;;;;5.47;3.40;;;;;;;22.68;44.19;100232.97;1790988;79;20999;-73
2021/08/19 10:58:29;;;;;;;6.43;3.90;;;;;;;22.79;44.09;100225.67;1783576;79;20985;-71
2021/08/19 11:00:59;;;;;;;6.23;3.73;;;;;;;22.87;41.66;100225.52;1791916;77;21061;-71
2021/08/19 11:03:50;;;;;;;5.77;3.90;;;;;;;22.84;41.15;100224.07;1803558;79;21237;-75
2021/08/19 11:06:23;;;;;;;6.28;4.40;;;;;;;22.83;42.69;100218.38;1801623;77;23282;-71
2021/08/19 11:08:58;;;;;;;6.13;4.30;;;;;;;22.95;42.66;100217.00;1782402;80;21521;-72
2021/08/19 11:11:37;;;;;;;6.97;4.30;;;;;;;23.13;42.73;100218.27;1794447;77;21140;-72
2021/08/19 11:14:18;;;;;;;8.07;4.57;;;;;;;23.26;42.08;100224.41;1794551;79;21070;-74
2021/08/19 11:16:55;;;;;;;5.17;4.03;;;;;;;23.29;42.42;100217.47;1784755;79;21203;-73
2021/08/19 11:19:26;;;;;;;6.20;3.80;;;;;;;23.31;41.70;100217.34;1807076;79;21536;-72
2021/08/19 11:21:56;;;;;;;6.40;4.60;;;;;;;23.28;40.36;100210.45;1794549;77;21156;-73
2021/08/19 11:24:25;;;;;;;6.37;4.28;;;;;;;23.12;41.37;100205.77;1799648;77;21074;-72
2021/08/19 11:27:09;;;;;;;6.33;4.33;;;;;;;23.00;41.46;100218.12;1797298;77;21495;-73
2021/08/19 11:29:41;;;;;;;5.30;3.70;;;;;;;22.95;42.13;100206.11;1801064;79;21094;-72
2021/08/19 11:32:12;;;;;;;6.00;3.60;;;;;;;22.98;41.05;100204.62;1788510;77;21065;-73